Flight Track Log - Related Links

Times and Time Zones

All times are in EDT time to prevent confusion due to time zone crossing. See the RPA1631 flight status page for this flight to view local times or setup timezone preferences in your user account.

Time Position Orientation Groundspeed Altitude Reporting Facility
EDT Latitude Longitude Course Direction KTS MPH feet Rate Location/Type
Sun 10:17:06 AM 43.1075 -89.3622 270° West 142 163 2,700  Level Chicago Center
Sun 10:18:07 AM 43.1078 -89.4406 270° West 199 229 4,100 2,146 Climbing Chicago Center
Sun 10:19:09 AM 43.1100 -89.5400 272° West 248 285 7,100 2,758 Climbing Chicago Center
Sun 10:20:11 AM 43.1117 -89.6328 271° West 248 285 9,800 2,537 Climbing Chicago Center
Sun 10:21:12 AM 43.1119 -89.7489 270° West 263 303 12,300 2,049 Climbing Chicago Center
Sun 10:22:00 AM 43.1334 -90.0851 270° West  Level FlightAware Approximate
Sun 10:22:14 AM 43.1128 -89.8550 271° West 277 319 14,000  Level Chicago Center
Sun 10:24:18 AM 43.1133 -90.0833 270° West 307 353 17,100 1,395 Climbing Chicago Center
Sun 10:25:19 AM 43.1150 -90.2006 271° West 311 358 18,300 1,268 Climbing Chicago Center
Sun 10:26:21 AM 43.1175 -90.3233 272° West 323 372 19,700 1,258 Climbing Chicago Center
Sun 10:27:23 AM 43.1178 -90.4458 270° West 324 373 20,900 1,597 Climbing Chicago Center
Sun 10:28:25 AM 43.1189 -90.5986 271° West 336 387 23,000 1,707 Climbing Chicago Center
Sun 10:29:26 AM 43.1167 -90.7278 269° West 340 391 24,400 1,366 Climbing Chicago Center
Sun 10:30:28 AM 43.1181 -90.8606 271° West 351 404 25,800 1,366 Climbing Chicago Center
Sun 10:31:29 AM 43.1178 -90.9936 270° West 353 406 27,200 1,279 Climbing Minneapolis Center
Sun 10:32:30 AM 43.1181 -91.1281 270° West 356 410 28,400 1,024 Climbing Minneapolis Center
Sun 10:33:32 AM 43.1189 -91.2625 271° West 358 412 29,300 927 Climbing Minneapolis Center
Sun 10:34:33 AM 43.1186 -91.4283 270° West 366 421 30,300 934 Climbing Minneapolis Center
Sun 10:35:34 AM 43.1181 -91.5675 270° West 370 426 31,200 829 Climbing Minneapolis Center
Sun 10:36:36 AM 43.1164 -91.7086 269° West 375 432 32,000 390 Climbing Minneapolis Center
Sun 10:37:37 AM 43.1153 -91.8511 269° West 379 436 32,000  Level Minneapolis Center
Sun 10:38:38 AM 43.1125 -92.0025 269° West 394 453 32,000  Level Minneapolis Center
Sun 10:39:39 AM 43.1125 -92.1531 270° West 400 460 32,000  Level Minneapolis Center
Sun 10:40:41 AM 43.1100 -92.3356 269° West 405 466 32,000 98 Level Minneapolis Center
Sun 10:41:42 AM 43.1075 -92.4903 269° West 410 472 32,200 295 Climbing Minneapolis Center
Sun 10:42:43 AM 43.1056 -92.6439 269° West 410 472 32,600 634 Climbing Minneapolis Center
Sun 10:43:45 AM 43.1042 -92.8011 269° West 414 476 33,500 683 Climbing Minneapolis Center
Sun 10:44:46 AM 43.1014 -92.9592 269° West 418 481 34,000 246 Climbing Minneapolis Center
Sun 10:45:47 AM 43.0989 -93.1189 269° West 422 486 34,000  Level Minneapolis Center
Sun 10:47:50 AM 43.0814 -93.4661 266° West 421 484 34,000  Level Minneapolis Center
Sun 10:48:51 AM 43.0650 -93.6261 262° West 425 489 34,000  Level Minneapolis Center
Sun 10:49:53 AM 43.0500 -93.7839 263° West 425 489 34,000  Level Minneapolis Center
Sun 10:50:54 AM 43.0339 -93.9425 262° West 424 488 34,000  Level Minneapolis Center
Sun 10:51:56 AM 43.0225 -94.0992 264° West 421 484 34,000  Level Minneapolis Center
Sun 10:52:57 AM 43.0058 -94.2569 262° West 424 488 34,000  Level Minneapolis Center
Sun 10:53:58 AM 42.9883 -94.4139 261° West 423 487 34,000  Level Minneapolis Center
Sun 10:55:00 AM 42.9694 -94.6072 262° West 421 484 34,000  Level Minneapolis Center
Sun 10:56:01 AM 42.9533 -94.7631 262° West 418 481 34,000  Level Minneapolis Center
Sun 10:57:02 AM 42.9372 -94.9208 262° West 419 482 34,000  Level Minneapolis Center
Sun 10:58:04 AM 42.9203 -95.0781 262° West 419 482 34,000  Level Minneapolis Center
Sun 10:59:05 AM 42.9036 -95.2347 262° West 418 481 34,000  Level Minneapolis Center
Sun 11:00:08 AM 42.8856 -95.3886 261° West 414 476 34,000  Level Minneapolis Center
Sun 11:01:09 AM 42.8694 -95.5436 262° West 414 476 34,000  Level Minneapolis Center
Sun 11:02:11 AM 42.8508 -95.6983 261° West 414 476 34,000  Level Minneapolis Center
Sun 11:03:12 AM 42.8292 -95.8864 261° West 417 480 34,000  Level Minneapolis Center
Sun 11:04:13 AM 42.8114 -96.0425 261° West 417 480 34,000  Level Minneapolis Center
Sun 11:05:15 AM 42.7925 -96.1989 261° West 417 480 34,000  Level Minneapolis Center
Sun 11:06:16 AM 42.7747 -96.3544 261° West 417 480 34,000  Level Minneapolis Center
Sun 11:07:17 AM 42.7558 -96.5092 261° West 416 479 34,000  Level Minneapolis Center
Sun 11:08:19 AM 42.7372 -96.6639 261° West 416 479 34,000  Level Minneapolis Center
Sun 11:09:20 AM 42.7192 -96.8158 261° West 409 471 34,000  Level Minneapolis Center
Sun 11:10:21 AM 42.7003 -96.9669 260° West 406 467 34,000  Level Minneapolis Center
Sun 11:11:22 AM 42.6775 -97.1386 260° West 406 467 34,000  Level Minneapolis Center
Sun 11:12:24 AM 42.6589 -97.2900 261° West 407 468 34,000  Level Minneapolis Center
Sun 11:13:25 AM 42.6386 -97.4431 260° West 412 474 34,000  Level Minneapolis Center
Sun 11:14:26 AM 42.6186 -97.5964 260° West 413 475 34,000  Level Minneapolis Center
Sun 11:15:28 AM 42.5989 -97.7497 260° West 414 476 34,000  Level Minneapolis Center
Sun 11:16:29 AM 42.5778 -97.9117 260° West 414 476 34,000  Level Minneapolis Center
Sun 11:17:30 AM 42.5564 -98.0633 259° West 411 473 34,000  Level Minneapolis Center
Sun 11:18:32 AM 42.5364 -98.2156 260° West 411 473 34,000  Level Minneapolis Center
Sun 11:19:33 AM 42.5158 -98.3675 260° West 410 472 34,000  Level Minneapolis Center
Sun 11:20:34 AM 42.4942 -98.5172 259° West 407 468 34,000  Level Minneapolis Center
Sun 11:21:36 AM 42.4736 -98.6664 259° West 404 465 34,000  Level Minneapolis Center
Sun 11:22:37 AM 42.4208 -98.7989 242° Southwest 404 465 34,000  Level Minneapolis Center
Sun 11:23:38 AM 42.3503 -98.9550 239° Southwest 406 467 34,000  Level Minneapolis Center
Sun 11:24:40 AM 42.2914 -99.0867 239° Southwest 409 471 34,000  Level Minneapolis Center
Sun 11:25:41 AM 42.2325 -99.2147 238° Southwest 405 466 34,000  Level Minneapolis Center
Sun 11:26:42 AM 42.1756 -99.3444 239° Southwest 403 464 34,000  Level Minneapolis Center
Sun 11:27:18 AM 42.1372 -99.4253 237° Southwest 411 473 34,000  Level Denver Center
Sun 11:28:20 AM 42.0781 -99.5561 239° Southwest 411 473 34,000  Level Denver Center
Sun 11:29:22 AM 42.0175 -99.6861 238° Southwest 412 474 34,000  Level Denver Center
Sun 11:30:24 AM 41.9533 -99.8281 239° Southwest 415 478 34,000  Level Denver Center
Sun 11:31:26 AM 41.8856 -99.9711 238° Southwest 410 472 34,000  Level Denver Center
Sun 11:32:28 AM 41.8275 -100.0978 238° Southwest 414 476 34,000  Level Denver Center
Sun 11:33:30 AM 41.7594 -100.2425 238° Southwest 413 475 34,000  Level Denver Center
Sun 11:34:32 AM 41.7011 -100.3667 238° Southwest 412 474 34,000  Level Denver Center
Sun 11:35:33 AM 41.6569 -100.5242 249° West 411 473 34,000  Level Denver Center
Sun 11:36:35 AM 41.6228 -100.6594 251° West 406 467 34,000  Level Denver Center
Sun 11:37:37 AM 41.5878 -100.7942 251° West 403 464 34,000  Level Denver Center
Sun 11:38:39 AM 41.5464 -100.9525 251° West 406 467 34,000  Level Denver Center
Sun 11:39:41 AM 41.5119 -101.0872 251° West 404 465 34,000  Level Denver Center
Sun 11:40:43 AM 41.4728 -101.2467 252° West 407 468 34,000  Level Denver Center
Sun 11:41:45 AM 41.4381 -101.3831 251° West 407 468 34,000  Level Denver Center
Sun 11:42:47 AM 41.4006 -101.5428 253° West 407 468 34,000  Level Denver Center
Sun 11:43:49 AM 41.3675 -101.6814 252° West 411 473 34,000  Level Denver Center
Sun 11:44:51 AM 41.3278 -101.8414 252° West 410 472 34,000  Level Denver Center
Sun 11:45:52 AM 41.2936 -101.9783 252° West 409 471 34,000  Level Denver Center
Sun 11:46:54 AM 41.2561 -102.1378 253° West 406 467 34,000  Level Denver Center
Sun 11:47:56 AM 41.2211 -102.2692 251° West 398 458 34,000  Level Denver Center
Sun 11:48:58 AM 41.1794 -102.4158 249° West 385 443 34,000  Level Denver Center
Sun 11:50:00 AM 41.1197 -102.5294 235° Southwest 390 449 34,000  Level Denver Center
Sun 11:51:02 AM 41.0497 -102.6664 236° Southwest 401 461 34,000  Level Denver Center
Sun 11:52:04 AM 40.9889 -102.7883 237° Southwest 413 475 34,000  Level Denver Center
Sun 11:53:06 AM 40.9150 -102.9303 235° Southwest 418 481 34,000  Level Denver Center
Sun 11:54:08 AM 40.8578 -103.0444 236° Southwest 418 481 34,000  Level Denver Center
Sun 11:55:10 AM 40.7919 -103.1708 235° Southwest 416 479 34,000  Level Denver Center
Sun 11:56:12 AM 40.7156 -103.3197 236° Southwest 417 480 34,000 -1,016 Level Denver Center
Sun 11:57:14 AM 40.6506 -103.4450 236° Southwest 411 473 31,900 -2,081 Descending Denver Center
Sun 11:58:16 AM 40.5858 -103.5711 236° Southwest 412 474 29,700 -2,081 Descending Denver Center
Sun 11:59:18 AM 40.5231 -103.6894 235° Southwest 393 452 27,600 -2,032 Descending Denver Center
Sun 12:00:20 PM 40.4608 -103.8058 235° Southwest 387 445 25,500 -2,032 Descending Denver Center
Sun 12:01:22 PM 40.3981 -103.9292 236° Southwest 377 434 23,400 -1,935 Descending Denver Center
Sun 12:02:24 PM 40.3361 -104.0303 231° Southwest 335 386 21,500 -1,694 Descending Denver Center
Sun 12:03:26 PM 40.2686 -104.1017 219° Southwest 311 358 19,900 -1,500 Descending Denver Center
Sun 12:04:28 PM 40.2039 -104.1725 220° Southwest 303 349 18,400 -1,500 Descending Denver Center
Sun 12:05:30 PM 40.1358 -104.2461 220° Southwest 297 342 16,800 -1,258 Descending Denver Center
Sun 12:06:32 PM 40.0739 -104.3111 219° Southwest 287 330 15,800 -984 Descending Denver Center
Sun 12:07:32 PM 40.0167 -104.3833 224° Southwest 262 302 14,800 -1,000 Descending Denver TRACON
Sun 12:08:38 PM 39.9500 -104.4500 217° Southwest 261 300 13,700 -1,048 Descending Denver TRACON
Sun 12:09:38 PM 39.9000 -104.5000 218° Southwest 255 293 12,600 -1,158 Descending Denver TRACON
Sun 12:10:32 PM 39.8333 -104.5000 180° South 255 293 11,500 -1,111 Descending Denver TRACON
Sun 12:11:26 PM 39.7667 -104.5000 180° South 247 284 10,600 -943 Descending Denver TRACON
Sun 12:11:42 PM 39.7583 -104.5025 193° South 246 283 10,400 -923 Descending Denver Center
Sun 12:12:44 PM 39.6867 -104.5033 181° South 239 275 9,400 -774 Descending Denver Center
Sun 12:13:46 PM 39.6303 -104.5189 192° South 222 255 8,800 -823 Descending Denver Center
Sun 12:14:48 PM 39.6458 -104.5864 287° West 204 235 7,700 -871 Descending Denver Center
Sun 12:15:50 PM 39.6933 -104.6206 331° Northwest 197 227 7,000 -339 Descending Denver Center
Sun 12:16:52 PM 39.7436 -104.6419 342° North 187 215 7,000 -435 Level Denver Center
Sun 12:17:54 PM 39.7919 -104.6425 359° North 174 200 6,100 -823 Descending Denver Center
Sun 12:18:56 PM 39.8375 -104.6414 North 155 178 5,300 -774 Descending Denver Center
Sun 12:20:00 PM 39.8500 -104.6667 339° North  Level FlightAware Approximate
Sun 12:27:00 PM 39.8617 -104.6732 339° North  Level Estimated
Sun 12:28:00 PM 39.8617 -104.6732 339° North  Level Estimated
Sun 12:29:00 PM 39.8617 -104.6732 339° North  Level Estimated
Sun 12:30:00 PM 39.8617 -104.6732 339° North  Level Estimated

Login

Don't have an account? Register now (free) for customized features, flight alerts, and more!